Versión en castellano
places Weather data articles

Conditions at Mairena del Aljarafe, Sevilla, Spain
Year Month Day Show

  Date        time        Out Temp.    Out hum.   Wind Dir.    Wind speed   SL Pressure   In T. Today rain 

   02-03-2024    13:30      16.6º(+1.2)     58%      270 (W)     12.9 km/h    1013.8 hpa     21.8º    0.0 mm
   02-03-2024    13:25      16.5º(+1.3)     59%      270 (W)      9.7 km/h    1013.9 hpa     21.7º    0.0 mm
   02-03-2024    13:20      16.4º(+1.3)     59%      270 (W)      9.7 km/h    1014.0 hpa     21.7º    0.0 mm
   02-03-2024    13:15      16.1º(+1.2)     59%      270 (W)     11.3 km/h    1014.2 hpa     21.7º    0.0 mm
   02-03-2024    13:10      15.9º(+1.2)     59%      270 (W)      9.7 km/h    1014.4 hpa     21.6º    0.0 mm
   02-03-2024    13:05      15.7º(+0.8)     60%      270 (W)     11.3 km/h    1014.4 hpa     21.6º    0.0 mm
   02-03-2024    13:00      15.4º(+0.7)     63%      270 (W)     11.3 km/h    1014.5 hpa     21.6º    0.0 mm
   02-03-2024    12:55      15.4º(+1.2)     64%      270 (W)      9.7 km/h    1014.6 hpa     21.6º    0.0 mm
   02-03-2024    12:50      15.4º(+1.7)     68%      270 (W)      9.7 km/h    1014.7 hpa     21.6º    0.0 mm
   02-03-2024    12:45      15.6º(+2.2)     69%      270 (W)      9.7 km/h    1014.7 hpa     21.5º    0.0 mm
   02-03-2024    12:40      15.5º(+1.8)     70%      270 (W)      6.4 km/h    1014.7 hpa     21.5º    0.0 mm
   02-03-2024    12:35      15.3º(+1.4)     71%      247(SW)      9.7 km/h    1014.8 hpa     21.6º    0.0 mm
   02-03-2024    12:30      15.0º(+0.5)     71%      270 (W)      9.7 km/h    1014.9 hpa     21.6º    0.0 mm
   02-03-2024    12:25      14.9º(+0.6)     72%      270 (W)      9.7 km/h    1014.9 hpa     21.6º    0.0 mm
   02-03-2024    12:20      14.8º(+0.6)     73%      270 (W)      8.0 km/h    1015.0 hpa     21.6º    0.0 mm
   02-03-2024    12:15      14.7º(+0.8)     74%      270 (W)      8.0 km/h    1015.0 hpa     21.6º    0.0 mm
   02-03-2024    12:10      14.7º(+1.1)     75%      247(SW)      6.4 km/h    1015.2 hpa     21.6º    0.0 mm
   02-03-2024    12:05      14.7º(+1.4)     76%      270 (W)      6.4 km/h    1015.3 hpa     21.7º    0.0 mm
   02-03-2024    12:00      14.6º(+1.2)     77%      202 (S)      4.8 km/h    1015.3 hpa     21.8º    0.0 mm
   02-03-2024    11:55      14.3º(+0.9)     78%      135(SE)      4.8 km/h    1015.4 hpa     21.8º    0.0 mm
   02-03-2024    11:50      14.2º(+1.2)     78%      067(NE)      4.8 km/h    1015.6 hpa     21.9º    0.0 mm
   02-03-2024    11:45      13.9º(+1.2)     79%      180 (S)      3.2 km/h    1015.6 hpa     21.9º    0.0 mm
   02-03-2024    11:40      13.8º(+1.3)     78%      180 (S)      4.8 km/h    1015.7 hpa     21.9º    0.0 mm
   02-03-2024    11:35      13.7º(+1.0)     80%      225(SW)      3.2 km/h    1015.9 hpa     21.9º    0.0 mm
   02-03-2024    11:30      13.4º(+0.7)     81%      180 (S)      3.2 km/h    1015.9 hpa     21.9º    0.0 mm
   02-03-2024    11:25      13.1º(+0.7)     82%      157(SE)      3.2 km/h    1016.0 hpa     21.9º    0.0 mm
   02-03-2024    11:20      12.9º(+0.6)     82%      202 (S)      4.8 km/h    1016.0 hpa     22.0º    0.0 mm
   02-03-2024    11:15      12.7º(+0.5)     83%      180 (S)      3.2 km/h    1016.0 hpa     22.0º    0.0 mm
   02-03-2024    11:10      12.4º(+0.5)     84%      157(SE)      3.2 km/h    1016.1 hpa     22.0º    0.0 mm
   02-03-2024    11:05      12.2º(+0.4)     85%      202 (S)      3.2 km/h    1016.1 hpa     22.0º    0.0 mm
   02-03-2024    11:00      11.9º(+0.3)     86%      225(SW)      3.2 km/h    1016.1 hpa     22.0º    0.0 mm
   02-03-2024    10:55      11.6º(+0.2)     86%      225(SW)      3.2 km/h    1016.0 hpa     22.0º    0.0 mm
   02-03-2024    10:50      11.4º(+0.1)     87%      225(SW)      4.8 km/h    1016.1 hpa     21.9º    0.0 mm
   02-03-2024    10:45      11.1º(-0.3)     88%      247(SW)      3.2 km/h    1016.3 hpa     21.9º    0.0 mm
   02-03-2024    10:40      10.8º(-0.3)     88%      247(SW)      1.6 km/h    1016.3 hpa     21.8º    0.0 mm
   02-03-2024    10:35      10.4º(-0.6)     89%      247(SW)      3.2 km/h    1016.4 hpa     21.7º    0.0 mm
   02-03-2024    10:30      10.2º(-0.7)     89%      247(SW)      1.6 km/h    1016.5 hpa     21.7º    0.0 mm
   02-03-2024    10:25      10.0º(-0.9)     89%      270 (W)      1.6 km/h    1016.4 hpa     21.7º    0.0 mm
   02-03-2024    10:20       9.7º(-1.2)     89%         -         0.0 km/h    1016.4 hpa     21.7º    0.0 mm
   02-03-2024    10:15       9.5º(-1.3)     89%         -         0.0 km/h    1016.5 hpa     21.7º    0.0 mm
   02-03-2024    10:10       9.3º(-1.4)     89%      270 (W)      1.6 km/h    1016.5 hpa     21.7º    0.0 mm
   02-03-2024    10:05       9.1º(-1.4)     89%         -         0.0 km/h    1016.6 hpa     21.6º    0.0 mm
   02-03-2024    10:00       8.9º(-1.4)     89%         -         0.0 km/h    1016.5 hpa     21.6º    0.0 mm
   02-03-2024    09:55       8.8º(-1.3)     89%      270 (W)      1.6 km/h    1016.4 hpa     21.6º    0.0 mm
   02-03-2024    09:50       8.8º(-1.2)     89%      270 (W)      1.6 km/h    1016.4 hpa     21.5º    0.0 mm
   02-03-2024    09:45       8.8º(-1.2)     89%      247(SW)      1.6 km/h    1016.3 hpa     21.5º    0.0 mm
   02-03-2024    09:40       8.7º(-1.3)     89%         -         0.0 km/h    1016.3 hpa     21.5º    0.0 mm
   02-03-2024    09:35       8.6º(-1.5)     89%         -         0.0 km/h    1016.3 hpa     21.4º    0.0 mm
   02-03-2024    09:30       8.4º(-1.7)     89%         -         0.0 km/h    1016.3 hpa     21.4º    0.0 mm
   02-03-2024    09:25       8.2º(-1.5)     89%         -         0.0 km/h    1016.2 hpa     21.3º    0.0 mm
   02-03-2024    09:20       8.1º(-1.4)     89%         -         0.0 km/h    1016.1 hpa     21.3º    0.0 mm
   02-03-2024    09:15       7.9º(-1.4)     89%         -         0.0 km/h    1016.0 hpa     21.2º    0.0 mm
   02-03-2024    09:10       7.8º(-1.1)     89%         -         0.0 km/h    1015.9 hpa     21.2º    0.0 mm
   02-03-2024    09:05       7.8º(-0.9)     88%         -         0.0 km/h    1016.0 hpa     21.2º    0.0 mm
   02-03-2024    09:00       7.7º(-0.9)     88%         -         0.0 km/h    1015.9 hpa     21.2º    0.0 mm
   02-03-2024    08:55       7.7º(-0.7)     88%         -         0.0 km/h    1015.9 hpa     21.1º    0.0 mm
   02-03-2024    08:50       7.8º(-0.4)     88%         -         0.0 km/h    1016.0 hpa     21.1º    0.0 mm
   02-03-2024    08:45       7.7º(-0.2)     89%         -         0.0 km/h    1015.9 hpa     20.9º    0.0 mm
   02-03-2024    08:40       7.6º(-0.3)     88%         -         0.0 km/h    1016.1 hpa     20.9º    0.0 mm
   02-03-2024    08:35        - º(----)      -%         -          -  km/h    1016.0 hpa     20.8º    0.0 mm
   02-03-2024    08:30        - º(----)      -%         -          -  km/h    1016.0 hpa     20.7º    0.0 mm
   02-03-2024    08:25        - º(----)      -%         -          -  km/h    1016.0 hpa     20.8º    0.0 mm
   02-03-2024    08:20        - º(----)      -%         -          -  km/h    1016.2 hpa     20.4º    0.0 mm
   02-03-2024    08:15        - º(----)      -%         -          -  km/h    1016.3 hpa     20.4º    0.0 mm
   02-03-2024    08:10        - º(----)      -%         -          -  km/h    1016.3 hpa     20.4º    0.0 mm
   02-03-2024    08:05        - º(----)      -%         -          -  km/h    1016.2 hpa     20.3º    0.0 mm
   02-03-2024    08:00        - º(----)      -%         -          -  km/h    1016.3 hpa     20.4º    0.0 mm
   02-03-2024    07:55        - º(----)      -%         -          -  km/h    1016.3 hpa     20.4º    0.0 mm
   02-03-2024    07:50        - º(----)      -%         -          -  km/h    1016.1 hpa     20.5º    0.0 mm
   02-03-2024    07:45        - º(----)      -%         -          -  km/h    1016.2 hpa     20.4º    0.0 mm
   02-03-2024    07:40        - º(----)      -%         -          -  km/h    1016.0 hpa     20.4º    0.0 mm
   02-03-2024    07:35        - º(----)      -%         -          -  km/h    1016.0 hpa     20.5º    0.0 mm
   02-03-2024    07:30        - º(----)      -%         -          -  km/h    1016.0 hpa     20.4º    0.0 mm
   02-03-2024    07:25        - º(----)      -%         -          -  km/h    1016.1 hpa     20.5º    0.0 mm
   02-03-2024    07:20        - º(----)      -%         -          -  km/h    1016.0 hpa     20.5º    0.0 mm
   02-03-2024    07:15        - º(----)      -%         -          -  km/h    1016.0 hpa     20.5º    0.0 mm
   02-03-2024    07:10        - º(----)      -%         -          -  km/h    1016.0 hpa     20.5º    0.0 mm
   02-03-2024    07:05        - º(----)      -%         -          -  km/h    1016.1 hpa     20.6º    0.0 mm
   02-03-2024    07:00        - º(----)      -%         -          -  km/h    1016.1 hpa     20.7º    0.0 mm
   02-03-2024    06:55        - º(----)      -%         -          -  km/h    1016.1 hpa     20.6º    0.0 mm
   02-03-2024    06:50        - º(----)      -%         -          -  km/h    1015.8 hpa     20.7º    0.0 mm
   02-03-2024    06:45        - º(----)      -%         -          -  km/h    1016.1 hpa     20.9º    0.0 mm
   02-03-2024    06:40       8.1º(-0.7)     83%         -          -  km/h    1016.1 hpa     20.9º    0.0 mm
   02-03-2024    06:35       8.1º(-0.7)     83%         -         0.0 km/h    1016.0 hpa     20.7º    0.0 mm
   02-03-2024    06:30       8.2º(-0.6)     83%         -         0.0 km/h    1016.0 hpa     20.6º    0.0 mm
   02-03-2024    06:25       8.3º(-0.6)     83%         -         0.0 km/h    1016.0 hpa     20.6º    0.0 mm
   02-03-2024    06:20       8.4º(-0.5)     83%         -         0.0 km/h    1016.0 hpa     20.6º    0.0 mm
   02-03-2024    06:15       8.4º(-0.5)     83%         -         0.0 km/h    1016.0 hpa     20.6º    0.0 mm
   02-03-2024    06:10       8.5º(-0.4)     82%      292 (W)      1.6 km/h    1016.0 hpa     20.6º    0.0 mm
   02-03-2024    06:05       8.6º(-0.3)     82%         -         0.0 km/h    1015.9 hpa     20.6º    0.0 mm
   02-03-2024    06:00       8.6º(-0.3)     82%         -         0.0 km/h    1015.9 hpa     20.7º    0.0 mm
   02-03-2024    05:55       8.7º(-0.2)     82%         -         0.0 km/h    1015.8 hpa     20.7º    0.0 mm
   02-03-2024    05:50       8.7º(-0.3)     82%         -         0.0 km/h    1015.9 hpa     20.7º    0.0 mm
   02-03-2024    05:45       8.7º(-0.4)     81%         -         0.0 km/h    1015.9 hpa     20.7º    0.0 mm
   02-03-2024    05:40       8.8º(-0.3)     81%         -         0.0 km/h    1015.8 hpa     20.7º    0.0 mm
   02-03-2024    05:35       8.8º(-0.4)     81%         -         0.0 km/h    1015.8 hpa     20.7º    0.0 mm
   02-03-2024    05:30       8.9º(-0.3)     81%         -         0.0 km/h    1015.9 hpa     20.8º    0.0 mm
   02-03-2024    05:25       9.0º(-0.3)     80%         -         0.0 km/h    1015.9 hpa     20.8º    0.0 mm
   02-03-2024    05:20       9.1º(-0.2)     80%         -         0.0 km/h    1015.9 hpa     20.8º    0.0 mm
   02-03-2024    05:15       9.2º(-0.1)     79%         -         0.0 km/h    1015.9 hpa     20.8º    0.0 mm
   02-03-2024    05:10       9.2º(-0.1)     79%         -         0.0 km/h    1015.9 hpa     20.8º    0.0 mm
   02-03-2024    05:05       9.3º(+0.0)     78%         -         0.0 km/h    1015.9 hpa     20.8º    0.0 mm
   02-03-2024    05:00       9.3º(+0.0)     78%         -         0.0 km/h    1016.1 hpa     20.8º    0.0 mm
   02-03-2024    04:55       9.4º(+0.1)     78%      000 (N)      1.6 km/h    1016.1 hpa     20.9º    0.0 mm
   02-03-2024    04:50       9.5º(+0.3)     78%      000 (N)      1.6 km/h    1016.2 hpa     20.9º    0.0 mm
   02-03-2024    04:45       9.6º(+0.3)     77%         -         0.0 km/h    1016.1 hpa     20.9º    0.0 mm
   02-03-2024    04:40       9.6º(+0.3)     76%         -         0.0 km/h    1016.3 hpa     20.9º    0.0 mm
   02-03-2024    04:35       9.6º(+0.3)     76%         -         0.0 km/h    1016.3 hpa     20.9º    0.0 mm
   02-03-2024    04:30       9.7º(+0.4)     76%         -         0.0 km/h    1016.4 hpa     20.9º    0.0 mm
   02-03-2024    04:25       9.7º(+0.4)     75%      000 (N)      1.6 km/h    1016.4 hpa     20.9º    0.0 mm
   02-03-2024    04:20       9.7º(+0.3)     75%         -         0.0 km/h    1016.4 hpa     20.9º    0.0 mm
   02-03-2024    04:15       9.8º(+0.4)     74%         -         0.0 km/h    1016.4 hpa     20.9º    0.0 mm
   02-03-2024    04:10       9.8º(+0.4)     74%         -         0.0 km/h    1016.4 hpa     20.9º    0.0 mm
   02-03-2024    04:05       9.8º(+0.5)     74%         -         0.0 km/h    1016.5 hpa     21.1º    0.0 mm
   02-03-2024    04:00       9.9º(+0.6)     74%         -         0.0 km/h    1016.5 hpa     21.1º    0.0 mm
   02-03-2024    03:55       9.9º(+0.6)     73%         -         0.0 km/h    1016.6 hpa     21.1º    0.0 mm
   02-03-2024    03:50      10.1º(+0.9)     73%         -         0.0 km/h    1016.6 hpa     21.1º    0.0 mm
   02-03-2024    03:45      10.1º(+0.9)     73%         -         0.0 km/h    1016.7 hpa     21.1º    0.0 mm
   02-03-2024    03:40      10.2º(+1.1)     73%         -         0.0 km/h    1016.8 hpa     21.2º    0.0 mm
   02-03-2024    03:35      10.2º(+1.3)     73%         -         0.0 km/h    1016.7 hpa     21.2º    0.0 mm
   02-03-2024    03:30      10.3º(+1.4)     73%         -         0.0 km/h    1016.8 hpa     21.2º    0.0 mm
   02-03-2024    03:25      10.4º(+1.4)     73%         -         0.0 km/h    1016.9 hpa     21.2º    0.0 mm
   02-03-2024    03:20      10.4º(+1.2)     73%         -         0.0 km/h    1017.0 hpa     21.2º    0.0 mm
   02-03-2024    03:15      10.5º(+1.1)     73%         -         0.0 km/h    1017.0 hpa     21.2º    0.0 mm
   02-03-2024    03:10      10.5º(+1.0)     72%         -         0.0 km/h    1017.0 hpa     21.2º    0.0 mm
   02-03-2024    03:05      10.6º(+1.0)     72%         -         0.0 km/h    1017.1 hpa     21.3º    0.0 mm
   02-03-2024    03:00      10.7º(+1.2)     72%         -         0.0 km/h    1017.2 hpa     21.3º    0.0 mm
   02-03-2024    02:55      10.7º(+1.2)     71%         -         0.0 km/h    1017.2 hpa     21.3º    0.0 mm
   02-03-2024    02:50      10.8º(+1.2)     71%         -         0.0 km/h    1017.3 hpa     21.4º    0.0 mm
   02-03-2024    02:45      10.9º(+1.2)     71%         -         0.0 km/h    1017.4 hpa     21.4º    0.0 mm
   02-03-2024    02:40      10.9º(+1.0)     71%         -         0.0 km/h    1017.4 hpa     21.4º    0.0 mm
   02-03-2024    02:35      11.0º(+0.9)     70%         -         0.0 km/h    1017.5 hpa     21.4º    0.0 mm
   02-03-2024    02:30      11.1º(+0.9)     70%         -         0.0 km/h    1017.4 hpa     21.4º    0.0 mm
   02-03-2024    02:25      11.2º(+0.9)     70%      000 (N)      1.6 km/h    1017.4 hpa     21.4º    0.0 mm
   02-03-2024    02:20      11.2º(+0.8)     69%      000 (N)      3.2 km/h    1017.5 hpa     21.4º    0.0 mm
   02-03-2024    02:15      11.3º(+0.8)     69%      000 (N)      1.6 km/h    1017.6 hpa     21.5º    0.0 mm
   02-03-2024    02:10      11.3º(+0.8)     68%      000 (N)      1.6 km/h    1017.6 hpa     21.5º    0.0 mm
   02-03-2024    02:05      11.3º(+0.9)     68%      000 (N)      1.6 km/h    1017.7 hpa     21.5º    0.0 mm
   02-03-2024    02:00      11.3º(+0.9)     68%      000 (N)      1.6 km/h    1017.9 hpa     21.5º    0.0 mm
   02-03-2024    01:55      11.4º(+1.0)     68%      000 (N)      1.6 km/h    1017.9 hpa     21.5º    0.0 mm
   02-03-2024    01:50      11.3º(+0.8)     68%      000 (N)      1.6 km/h    1018.0 hpa     21.5º    0.0 mm
   02-03-2024    01:45      11.3º(+0.6)     68%      000 (N)      1.6 km/h    1018.0 hpa     21.5º    0.0 mm
   02-03-2024    01:40      11.3º(+0.5)     68%         -         0.0 km/h    1018.0 hpa     21.6º    0.0 mm
   02-03-2024    01:35      11.3º(+0.2)     68%         -         0.0 km/h    1018.1 hpa     21.6º    0.0 mm
   02-03-2024    01:30      11.4º(+0.2)     68%         -         0.0 km/h    1018.2 hpa     21.6º    0.0 mm
   02-03-2024    01:25      11.4º(+0.1)     67%         -         0.0 km/h    1018.2 hpa     21.6º    0.0 mm
   02-03-2024    01:20      11.5º(+0.1)     67%         -         0.0 km/h    1018.2 hpa     21.6º    0.0 mm
   02-03-2024    01:15      11.6º(+0.2)     67%         -         0.0 km/h    1018.2 hpa     21.6º    0.0 mm
   02-03-2024    01:10      11.6º(+0.2)     66%         -         0.0 km/h    1018.2 hpa     21.6º    0.0 mm
   02-03-2024    01:05      11.7º(+0.3)     66%         -         0.0 km/h    1018.2 hpa     21.7º    0.0 mm
   02-03-2024    01:00      11.8º(+0.3)     65%         -         0.0 km/h    1018.3 hpa     21.7º    0.0 mm
   02-03-2024    00:55      11.9º(----)     65%         -         0.0 km/h    1018.1 hpa     21.7º    0.0 mm
   02-03-2024    00:50      11.9º(----)     64%         -         0.0 km/h    1018.1 hpa     21.7º    0.0 mm
   02-03-2024    00:45      12.0º(----)     64%         -         0.0 km/h    1018.1 hpa     21.8º    0.0 mm
   02-03-2024    00:40      12.1º(----)     64%         -         0.0 km/h    1018.2 hpa     21.8º    0.0 mm
   02-03-2024    00:35      12.1º(----)     64%         -         0.0 km/h    1018.4 hpa     21.8º    0.0 mm
   02-03-2024    00:30      12.2º(----)     63%         -         0.0 km/h    1018.4 hpa     21.8º    0.0 mm
   02-03-2024    00:25      12.2º(----)     63%         -         0.0 km/h    1018.4 hpa     21.8º    0.0 mm
   02-03-2024    00:20      12.3º(----)     63%         -         0.0 km/h    1018.4 hpa     21.9º    0.0 mm
   02-03-2024    00:15      12.3º(----)     63%         -         0.0 km/h    1018.4 hpa     21.9º    0.0 mm
   02-03-2024    00:10      12.3º(----)     62%         -         0.0 km/h    1018.4 hpa     21.9º    0.0 mm
   02-03-2024    00:05      12.4º(----)     62%      000 (N)      1.6 km/h    1018.4 hpa     21.9º    0.0 mm
   02-03-2024    00:00      12.4º(----)     62%      000 (N)      1.6 km/h    1018.4 hpa     22.0º    0.0 mm